Etusivu
METAR-TAF:

METAR-TAF

Lentoasemat :

Mannheim, Saksa

Leveyspiiri: 49-28-21N, Pituuspiiri: 008-30-56E, korkeus merenpinnasta: 100 m

Tämänhetkinen sää

Tämä raportti tehtiin 1 tunti ja 45 minuuttia sitten, kello 19.20 UTC
Tuuli 8 kn lännestä
Lämpötila 23°C
Kosteus 69%
Ilmanpaine 1010 hPa
Näkyvyys 10 km tai enemmän
ei pilviä alle 1500 m:ssä eikä cumulonimbus-pilviä

METAR: EDFM 181920Z 28008KT CAVOK 23/17 Q1010

Aika: 23:05 (21:05 UTC)


TAF: puuttuu

Säähavainnot ja -ennusteet yli 4000 lentoasemalta (METAR- ja TAF-raportit).

Käytössä olevat sääasemat on merkitty karttaan keltaisilla ja punaisilla pisteillä.

Aseta hiiri pisteen päälle nähdäksesi sääaseman nimen.

Klikkaa sitten nähdäksesi säähavainnot ja -ennusteet.

Kartan vaihtaminen: klikkaa mustalla rastilla varustettuja vihreitä pisteitä, niin voit zoomata sisään; viivalla varustettua vihreää pistettä, niin voit zoomata ulos tai vihreitä nuolia, niin pääset viereisille kartoille.


METAR-TAF: